sensor_id;sensor_type;location;lat;lon;timestamp;pressure;altitude;pressure_sealevel;temperature;humidity
31538;BME280;18147;51.952;6.146;2023-09-18T00:00:02;100742.53;;;18.86;100.00
31538;BME280;18147;51.952;6.146;2023-09-18T00:02:33;100747.94;;;18.86;100.00
31538;BME280;18147;51.952;6.146;2023-09-18T00:04:59;100739.13;;;18.84;100.00
31538;BME280;18147;51.952;6.146;2023-09-18T00:07:27;100734.59;;;18.85;100.00
31538;BME280;18147;51.952;6.146;2023-09-18T00:09:53;100729.47;;;18.82;100.00
31538;BME280;18147;51.952;6.146;2023-09-18T00:12:18;100723.94;;;18.83;100.00
31538;BME280;18147;51.952;6.146;2023-09-18T00:14:47;100730.81;;;18.78;100.00
31538;BME280;18147;51.952;6.146;2023-09-18T00:17:13;100726.94;;;18.80;100.00
31538;BME280;18147;51.952;6.146;2023-09-18T00:19:38;100722.53;;;18.79;100.00
31538;BME280;18147;51.952;6.146;2023-09-18T00:22:05;100704.47;;;18.80;100.00
31538;BME280;18147;51.952;6.146;2023-09-18T00:24:31;100699.53;;;18.75;100.00
31538;BME280;18147;51.952;6.146;2023-09-18T00:26:57;100691.59;;;18.74;100.00
31538;BME280;18147;51.952;6.146;2023-09-18T00:29:23;100696.84;;;18.75;100.00
31538;BME280;18147;51.952;6.146;2023-09-18T00:31:48;100677.38;;;18.72;100.00
31538;BME280;18147;51.952;6.146;2023-09-18T00:34:14;100673.28;;;18.68;100.00
31538;BME280;18147;51.952;6.146;2023-09-18T00:36:40;100683.31;;;18.75;100.00
31538;BME280;18147;51.952;6.146;2023-09-18T00:39:06;100674.91;;;18.78;100.00
31538;BME280;18147;51.952;6.146;2023-09-18T00:41:32;100679.09;;;18.73;100.00
31538;BME280;18147;51.952;6.146;2023-09-18T00:43:57;100674.22;;;18.76;100.00
31538;BME280;18147;51.952;6.146;2023-09-18T00:46:23;100675.59;;;18.80;100.00
31538;BME280;18147;51.952;6.146;2023-09-18T00:48:50;100660.94;;;18.83;100.00
31538;BME280;18147;51.952;6.146;2023-09-18T00:51:16;100646.72;;;18.81;100.00
31538;BME280;18147;51.952;6.146;2023-09-18T00:53:47;100640.66;;;18.79;100.00
31538;BME280;18147;51.952;6.146;2023-09-18T00:56:14;100626.44;;;18.77;100.00
31538;BME280;18147;51.952;6.146;2023-09-18T00:58:40;100634.84;;;18.74;100.00
31538;BME280;18147;51.952;6.146;2023-09-18T01:01:06;100629.06;;;18.69;100.00
31538;BME280;18147;51.952;6.146;2023-09-18T01:03:34;100633.31;;;18.71;100.00
31538;BME280;18147;51.952;6.146;2023-09-18T01:06:00;100629.91;;;18.69;100.00
31538;BME280;18147;51.952;6.146;2023-09-18T01:08:25;100625.19;;;18.71;100.00
31538;BME280;18147;51.952;6.146;2023-09-18T01:11:10;100619.16;;;18.77;100.00
31538;BME280;18147;51.952;6.146;2023-09-18T01:14:20;100618.88;;;18.80;100.00
31538;BME280;18147;51.952;6.146;2023-09-18T01:16:56;100605.19;;;18.82;100.00
31538;BME280;18147;51.952;6.146;2023-09-18T01:19:43;100602.66;;;18.80;100.00
31538;BME280;18147;51.952;6.146;2023-09-18T01:22:15;100597.25;;;18.80;100.00
31538;BME280;18147;51.952;6.146;2023-09-18T01:24:46;100596.88;;;18.75;100.00
31538;BME280;18147;51.952;6.146;2023-09-18T01:27:16;100585.91;;;18.77;100.00
31538;BME280;18147;51.952;6.146;2023-09-18T01:29:44;100576.81;;;18.78;100.00
31538;BME280;18147;51.952;6.146;2023-09-18T01:32:09;100564.66;;;18.82;100.00
31538;BME280;18147;51.952;6.146;2023-09-18T01:34:37;100559.72;;;18.77;100.00
31538;BME280;18147;51.952;6.146;2023-09-18T01:37:09;100555.34;;;18.76;100.00
31538;BME280;18147;51.952;6.146;2023-09-18T01:39:35;100548.53;;;18.72;100.00
31538;BME280;18147;51.952;6.146;2023-09-18T01:42:03;100555.34;;;18.76;100.00
31538;BME280;18147;51.952;6.146;2023-09-18T01:44:33;100539.94;;;18.69;100.00
31538;BME280;18147;51.952;6.146;2023-09-18T01:47:03;100541.31;;;18.73;100.00
31538;BME280;18147;51.952;6.146;2023-09-18T01:51:58;100539.13;;;18.76;100.00
31538;BME280;18147;51.952;6.146;2023-09-18T01:54:24;100535.28;;;18.79;100.00
31538;BME280;18147;51.952;6.146;2023-09-18T01:56:54;100535.19;;;18.88;100.00
31538;BME280;18147;51.952;6.146;2023-09-18T01:59:20;100530.09;;;18.85;100.00
31538;BME280;18147;51.952;6.146;2023-09-18T02:01:47;100523.63;;;18.78;100.00
31538;BME280;18147;51.952;6.146;2023-09-18T02:04:13;100523.66;;;18.86;100.00
31538;BME280;18147;51.952;6.146;2023-09-18T02:06:39;100521.03;;;18.95;100.00
31538;BME280;18147;51.952;6.146;2023-09-18T02:09:06;100517.31;;;18.96;100.00
31538;BME280;18147;51.952;6.146;2023-09-18T02:11:38;100512.06;;;18.94;100.00
31538;BME280;18147;51.952;6.146;2023-09-18T02:14:04;100503.31;;;19.00;100.00
31538;BME280;18147;51.952;6.146;2023-09-18T02:16:38;100491.97;;;18.97;100.00
31538;BME280;18147;51.952;6.146;2023-09-18T02:19:07;100495.53;;;18.97;100.00
31538;BME280;18147;51.952;6.146;2023-09-18T02:21:34;100492.50;;;19.00;100.00
31538;BME280;18147;51.952;6.146;2023-09-18T02:23:59;100481.16;;;18.97;100.00
31538;BME280;18147;51.952;6.146;2023-09-18T02:26:28;100490.13;;;18.97;100.00
31538;BME280;18147;51.952;6.146;2023-09-18T02:28:57;100491.13;;;18.96;100.00
31538;BME280;18147;51.952;6.146;2023-09-18T02:31:23;100487.75;;;18.94;100.00
31538;BME280;18147;51.952;6.146;2023-09-18T02:33:49;100482.19;;;18.96;100.00
31538;BME280;18147;51.952;6.146;2023-09-18T02:36:15;100470.72;;;19.02;100.00
31538;BME280;18147;51.952;6.146;2023-09-18T02:38:41;100456.91;;;19.05;100.00
31538;BME280;18147;51.952;6.146;2023-09-18T02:41:07;100449.81;;;19.12;100.00
31538;BME280;18147;51.952;6.146;2023-09-18T02:43:32;100436.88;;;19.24;100.00
31538;BME280;18147;51.952;6.146;2023-09-18T02:45:58;100414.59;;;19.30;100.00
31538;BME280;18147;51.952;6.146;2023-09-18T02:48:24;100403.63;;;19.39;100.00
31538;BME280;18147;51.952;6.146;2023-09-18T02:50:50;100387.91;;;19.35;100.00
31538;BME280;18147;51.952;6.146;2023-09-18T02:53:21;100387.75;;;19.45;100.00
31538;BME280;18147;51.952;6.146;2023-09-18T02:55:50;100370.16;;;19.40;100.00
31538;BME280;18147;51.952;6.146;2023-09-18T02:58:15;100364.78;;;19.49;100.00
31538;BME280;18147;51.952;6.146;2023-09-18T03:00:43;100353.94;;;19.40;100.00
31538;BME280;18147;51.952;6.146;2023-09-18T03:03:10;100349.03;;;19.36;100.00
31538;BME280;18147;51.952;6.146;2023-09-18T03:05:36;100340.78;;;19.46;100.00
31538;BME280;18147;51.952;6.146;2023-09-18T03:08:03;100335.00;;;19.40;100.00
31538;BME280;18147;51.952;6.146;2023-09-18T03:10:33;100319.13;;;19.46;100.00
31538;BME280;18147;51.952;6.146;2023-09-18T03:13:00;100305.28;;;19.49;100.00
31538;BME280;18147;51.952;6.146;2023-09-18T03:15:25;100307.81;;;19.42;100.00
31538;BME280;18147;51.952;6.146;2023-09-18T03:17:58;100300.03;;;19.39;100.00
31538;BME280;18147;51.952;6.146;2023-09-18T03:20:27;100295.47;;;19.48;100.00
31538;BME280;18147;51.952;6.146;2023-09-18T03:22:56;100284.97;;;19.36;100.00
31538;BME280;18147;51.952;6.146;2023-09-18T03:25:23;100285.81;;;19.37;100.00
31538;BME280;18147;51.952;6.146;2023-09-18T03:27:50;100284.13;;;19.36;100.00
31538;BME280;18147;51.952;6.146;2023-09-18T03:30:18;100269.63;;;19.45;100.00
31538;BME280;18147;51.952;6.146;2023-09-18T03:32:44;100269.78;;;19.35;100.00
31538;BME280;18147;51.952;6.146;2023-09-18T03:35:11;100265.91;;;19.38;100.00
31538;BME280;18147;51.952;6.146;2023-09-18T03:37:48;100266.25;;;19.43;100.00
31538;BME280;18147;51.952;6.146;2023-09-18T03:40:16;100252.88;;;19.41;100.00
31538;BME280;18147;51.952;6.146;2023-09-18T03:42:42;100255.91;;;19.47;100.00
31538;BME280;18147;51.952;6.146;2023-09-18T03:45:08;100257.59;;;19.48;100.00
31538;BME280;18147;51.952;6.146;2023-09-18T03:47:35;100255.91;;;19.47;100.00
31538;BME280;18147;51.952;6.146;2023-09-18T03:50:02;100250.88;;;19.60;100.00
31538;BME280;18147;51.952;6.146;2023-09-18T03:52:28;100251.22;;;19.65;100.00
31538;BME280;18147;51.952;6.146;2023-09-18T03:54:55;100242.22;;;19.73;100.00
31538;BME280;18147;51.952;6.146;2023-09-18T03:57:22;100241.91;;;19.67;100.00
31538;BME280;18147;51.952;6.146;2023-09-18T03:59:48;100263.22;;;19.71;100.00
31538;BME280;18147;51.952;6.146;2023-09-18T04:02:13;100261.16;;;19.81;100.00
31538;BME280;18147;51.952;6.146;2023-09-18T04:04:40;100251.19;;;19.81;100.00
31538;BME280;18147;51.952;6.146;2023-09-18T04:07:09;100266.41;;;19.82;100.00
31538;BME280;18147;51.952;6.146;2023-09-18T04:09:35;100272.31;;;19.86;100.00
31538;BME280;18147;51.952;6.146;2023-09-18T04:12:04;100277.91;;;19.84;100.00
31538;BME280;18147;51.952;6.146;2023-09-18T04:14:33;100272.50;;;19.84;100.00
31538;BME280;18147;51.952;6.146;2023-09-18T04:16:58;100261.84;;;19.83;100.00
31538;BME280;18147;51.952;6.146;2023-09-18T04:19:26;100247.81;;;19.79;100.00
31538;BME280;18147;51.952;6.146;2023-09-18T04:21:52;100247.81;;;19.79;100.00
31538;BME280;18147;51.952;6.146;2023-09-18T04:24:18;100246.81;;;19.80;100.00
31538;BME280;18147;51.952;6.146;2023-09-18T04:26:43;100255.09;;;19.79;100.00
31538;BME280;18147;51.952;6.146;2023-09-18T04:29:09;100246.97;;;19.79;100.00
31538;BME280;18147;51.952;6.146;2023-09-18T04:31:37;100248.84;;;19.78;100.00
31538;BME280;18147;51.952;6.146;2023-09-18T04:34:06;100244.75;;;19.82;100.00
31538;BME280;18147;51.952;6.146;2023-09-18T04:36:33;100232.25;;;19.81;100.00
31538;BME280;18147;51.952;6.146;2023-09-18T04:38:58;100224.16;;;19.73;100.00
31538;BME280;18147;51.952;6.146;2023-09-18T04:41:24;100221.59;;;19.72;100.00
31538;BME280;18147;51.952;6.146;2023-09-18T04:43:52;100213.84;;;19.69;100.00
31538;BME280;18147;51.952;6.146;2023-09-18T04:46:18;100212.31;;;19.66;100.00
31538;BME280;18147;51.952;6.146;2023-09-18T04:48:44;100200.84;;;19.64;100.00
31538;BME280;18147;51.952;6.146;2023-09-18T04:51:10;100213.34;;;19.65;100.00
31538;BME280;18147;51.952;6.146;2023-09-18T04:53:35;100212.00;;;19.61;100.00
31538;BME280;18147;51.952;6.146;2023-09-18T04:56:01;100210.97;;;19.62;100.00
31538;BME280;18147;51.952;6.146;2023-09-18T04:58:29;100215.88;;;19.66;100.00
31538;BME280;18147;51.952;6.146;2023-09-18T05:00:57;100217.72;;;19.66;100.00
31538;BME280;18147;51.952;6.146;2023-09-18T05:03:23;100215.22;;;19.64;100.00
31538;BME280;18147;51.952;6.146;2023-09-18T05:05:49;100230.94;;;19.61;100.00
31538;BME280;18147;51.952;6.146;2023-09-18T05:08:14;100238.53;;;19.65;100.00
31538;BME280;18147;51.952;6.146;2023-09-18T05:10:40;100237.69;;;19.73;100.00
31538;BME280;18147;51.952;6.146;2023-09-18T05:13:06;100237.66;;;19.81;100.00
31538;BME280;18147;51.952;6.146;2023-09-18T05:15:32;100210.09;;;19.86;100.00
31538;BME280;18147;51.952;6.146;2023-09-18T05:17:59;100207.38;;;19.86;100.00
31538;BME280;18147;51.952;6.146;2023-09-18T05:20:29;100208.53;;;19.91;100.00
31538;BME280;18147;51.952;6.146;2023-09-18T05:22:57;100203.97;;;19.92;100.00
31538;BME280;18147;51.952;6.146;2023-09-18T05:25:24;100204.16;;;19.90;100.00
31538;BME280;18147;51.952;6.146;2023-09-18T05:28:00;100193.50;;;19.89;100.00
31538;BME280;18147;51.952;6.146;2023-09-18T05:30:30;100182.53;;;19.82;100.00
31538;BME280;18147;51.952;6.146;2023-09-18T05:32:58;100197.91;;;19.82;100.00
31538;BME280;18147;51.952;6.146;2023-09-18T05:35:56;100209.56;;;19.90;100.00
31538;BME280;18147;51.952;6.146;2023-09-18T05:38:23;100217.38;;;19.85;100.00
31538;BME280;18147;51.952;6.146;2023-09-18T05:40:48;100224.13;;;19.89;100.00
31538;BME280;18147;51.952;6.146;2023-09-18T05:43:14;100236.50;;;19.76;100.00
31538;BME280;18147;51.952;6.146;2023-09-18T05:45:40;100254.59;;;19.75;100.00
31538;BME280;18147;51.952;6.146;2023-09-18T05:48:06;100268.13;;;19.75;100.00
31538;BME280;18147;51.952;6.146;2023-09-18T05:50:34;100274.19;;;19.85;100.00
31538;BME280;18147;51.952;6.146;2023-09-18T05:53:01;100273.84;;;19.72;100.00
31538;BME280;18147;51.952;6.146;2023-09-18T05:55:33;100301.91;;;19.87;100.00
31538;BME280;18147;51.952;6.146;2023-09-18T05:58:00;100305.97;;;19.91;100.00
31538;BME280;18147;51.952;6.146;2023-09-18T06:00:32;100292.81;;;19.88;100.00
31538;BME280;18147;51.952;6.146;2023-09-18T06:02:58;100305.81;;;19.93;100.00
31538;BME280;18147;51.952;6.146;2023-09-18T06:05:24;100315.63;;;19.94;100.00
31538;BME280;18147;51.952;6.146;2023-09-18T06:07:50;100320.34;;;20.00;100.00
31538;BME280;18147;51.952;6.146;2023-09-18T06:10:17;100324.56;;;20.03;100.00
31538;BME280;18147;51.952;6.146;2023-09-18T06:12:44;100331.00;;;20.02;100.00
31538;BME280;18147;51.952;6.146;2023-09-18T06:15:10;100326.09;;;20.05;100.00
31538;BME280;18147;51.952;6.146;2023-09-18T06:17:41;100331.31;;;20.07;100.00
31538;BME280;18147;51.952;6.146;2023-09-18T06:20:08;100321.84;;;20.11;100.00
31538;BME280;18147;51.952;6.146;2023-09-18T06:22:41;100321.19;;;20.09;100.00
31538;BME280;18147;51.952;6.146;2023-09-18T06:25:10;100314.94;;;20.08;100.00
31538;BME280;18147;51.952;6.146;2023-09-18T06:27:35;100299.16;;;20.12;100.00
31538;BME280;18147;51.952;6.146;2023-09-18T06:30:03;100293.75;;;20.20;100.00
31538;BME280;18147;51.952;6.146;2023-09-18T06:32:29;100295.44;;;20.21;100.00
31538;BME280;18147;51.952;6.146;2023-09-18T06:34:56;100301.88;;;20.28;100.00
31538;BME280;18147;51.952;6.146;2023-09-18T06:37:23;100302.00;;;20.35;100.00
31538;BME280;18147;51.952;6.146;2023-09-18T06:39:49;100294.72;;;20.43;100.00
31538;BME280;18147;51.952;6.146;2023-09-18T06:42:15;100292.16;;;20.42;100.00
31538;BME280;18147;51.952;6.146;2023-09-18T06:44:40;100284.22;;;20.40;100.00
31538;BME280;18147;51.952;6.146;2023-09-18T06:47:10;100292.53;;;20.39;100.00
31538;BME280;18147;51.952;6.146;2023-09-18T06:49:35;100297.09;;;20.38;100.00
31538;BME280;18147;51.952;6.146;2023-09-18T06:52:01;100301.16;;;20.34;100.00
31538;BME280;18147;51.952;6.146;2023-09-18T06:54:27;100302.84;;;20.35;100.00
31538;BME280;18147;51.952;6.146;2023-09-18T06:56:52;100291.16;;;20.35;100.00
31538;BME280;18147;51.952;6.146;2023-09-18T06:59:18;100291.16;;;20.35;100.00
31538;BME280;18147;51.952;6.146;2023-09-18T07:01:44;100287.09;;;20.39;100.00
31538;BME280;18147;51.952;6.146;2023-09-18T07:04:10;100286.59;;;20.27;100.00
31538;BME280;18147;51.952;6.146;2023-09-18T07:06:35;100294.41;;;20.30;100.00
31538;BME280;18147;51.952;6.146;2023-09-18T07:09:02;100290.34;;;20.34;100.00
31538;BME280;18147;51.952;6.146;2023-09-18T07:11:30;100290.16;;;20.36;100.00
31538;BME280;18147;51.952;6.146;2023-09-18T07:14:01;100299.81;;;20.38;100.00
31538;BME280;18147;51.952;6.146;2023-09-18T07:16:31;100303.69;;;20.28;100.00
31538;BME280;18147;51.952;6.146;2023-09-18T07:18:56;100299.25;;;20.43;100.00
31538;BME280;18147;51.952;6.146;2023-09-18T07:21:22;100301.31;;;20.33;100.00
31538;BME280;18147;51.952;6.146;2023-09-18T07:23:50;100309.44;;;20.41;100.00
31538;BME280;18147;51.952;6.146;2023-09-18T07:26:16;100301.13;;;20.59;100.00
31538;BME280;18147;51.952;6.146;2023-09-18T07:28:42;100295.03;;;20.40;100.00
31538;BME280;18147;51.952;6.146;2023-09-18T07:31:11;100285.94;;;20.33;100.00
31538;BME280;18147;51.952;6.146;2023-09-18T07:33:37;100287.94;;;20.48;100.00
31538;BME280;18147;51.952;6.146;2023-09-18T07:36:03;100304.16;;;20.56;100.00
31538;BME280;18147;51.952;6.146;2023-09-18T07:38:32;100273.53;;;20.55;100.00
31538;BME280;18147;51.952;6.146;2023-09-18T07:40:58;100270.84;;;20.78;100.00
31538;BME280;18147;51.952;6.146;2023-09-18T07:43:24;100272.66;;;20.94;100.00
31538;BME280;18147;51.952;6.146;2023-09-18T07:45:53;100268.06;;;20.94;100.00
31538;BME280;18147;51.952;6.146;2023-09-18T07:48:19;100280.56;;;21.04;100.00
31538;BME280;18147;51.952;6.146;2023-09-18T07:50:46;100293.56;;;21.08;100.00
31538;BME280;18147;51.952;6.146;2023-09-18T07:53:15;100276.22;;;21.17;100.00
31538;BME280;18147;51.952;6.146;2023-09-18T07:55:40;100268.38;;;21.00;100.00
31538;BME280;18147;51.952;6.146;2023-09-18T07:58:06;100283.09;;;21.05;100.00
31538;BME280;18147;51.952;6.146;2023-09-18T08:00:34;100279.66;;;20.80;100.00
31538;BME280;18147;51.952;6.146;2023-09-18T08:03:01;100266.34;;;20.71;100.00
31538;BME280;18147;51.952;6.146;2023-09-18T08:05:34;100272.69;;;20.86;100.00
31538;BME280;18147;51.952;6.146;2023-09-18T08:08:00;100287.06;;;20.94;100.00
31538;BME280;18147;51.952;6.146;2023-09-18T08:10:32;100298.66;;;21.03;100.00
31538;BME280;18147;51.952;6.146;2023-09-18T08:13:03;100293.84;;;20.90;100.00
31538;BME280;18147;51.952;6.146;2023-09-18T08:15:29;100288.44;;;21.13;100.00
31538;BME280;18147;51.952;6.146;2023-09-18T08:17:56;100292.19;;;21.12;100.00
31538;BME280;18147;51.952;6.146;2023-09-18T08:20:22;100290.53;;;21.03;100.00
31538;BME280;18147;51.952;6.146;2023-09-18T08:22:48;100287.56;;;21.21;100.00
31538;BME280;18147;51.952;6.146;2023-09-18T08:25:14;100281.19;;;21.37;100.00
31538;BME280;18147;51.952;6.146;2023-09-18T08:27:43;100285.34;;;21.70;100.00
31538;BME280;18147;51.952;6.146;2023-09-18T08:30:11;100289.44;;;21.66;100.00
31538;BME280;18147;51.952;6.146;2023-09-18T08:32:41;100278.34;;;21.76;100.00
31538;BME280;18147;51.952;6.146;2023-09-18T08:35:08;100279.72;;;21.72;100.00
31538;BME280;18147;51.952;6.146;2023-09-18T08:37:34;100281.44;;;21.50;100.00
31538;BME280;18147;51.952;6.146;2023-09-18T08:39:59;100288.13;;;21.62;100.00
31538;BME280;18147;51.952;6.146;2023-09-18T08:42:36;100284.81;;;21.90;100.00
31538;BME280;18147;51.952;6.146;2023-09-18T08:45:07;100284.38;;;22.01;100.00
31538;BME280;18147;51.952;6.146;2023-09-18T08:47:35;100283.44;;;22.09;100.00
31538;BME280;18147;51.952;6.146;2023-09-18T08:50:02;100290.41;;;22.11;100.00
31538;BME280;18147;51.952;6.146;2023-09-18T08:52:30;100300.31;;;22.04;100.00
31538;BME280;18147;51.952;6.146;2023-09-18T08:54:59;100282.91;;;22.13;100.00
31538;BME280;18147;51.952;6.146;2023-09-18T08:57:29;100281.75;;;22.08;100.00
31538;BME280;18147;51.952;6.146;2023-09-18T08:59:59;100289.25;;;22.06;100.00
31538;BME280;18147;51.952;6.146;2023-09-18T09:02:30;100282.00;;;21.98;100.00
31538;BME280;18147;51.952;6.146;2023-09-18T09:04:58;100294.34;;;22.23;100.00
31538;BME280;18147;51.952;6.146;2023-09-18T09:07:25;100303.25;;;22.32;100.00
31538;BME280;18147;51.952;6.146;2023-09-18T09:09:54;100304.47;;;22.30;100.00
31538;BME280;18147;51.952;6.146;2023-09-18T09:12:53;100310.28;;;22.56;100.00
31538;BME280;18147;51.952;6.146;2023-09-18T09:15:21;100311.69;;;22.52;100.00
31538;BME280;18147;51.952;6.146;2023-09-18T09:17:47;100313.38;;;22.38;100.00
31538;BME280;18147;51.952;6.146;2023-09-18T09:20:13;100304.56;;;22.51;100.00
31538;BME280;18147;51.952;6.146;2023-09-18T09:22:44;100319.44;;;22.11;100.00
31538;BME280;18147;51.952;6.146;2023-09-18T09:25:24;100324.59;;;22.20;100.00
31538;BME280;18147;51.952;6.146;2023-09-18T09:27:58;100312.06;;;22.34;100.00
31538;BME280;18147;51.952;6.146;2023-09-18T09:30:32;100316.75;;;22.26;100.00
31538;BME280;18147;51.952;6.146;2023-09-18T09:32:59;100292.38;;;22.32;100.00
31538;BME280;18147;51.952;6.146;2023-09-18T09:35:31;100297.34;;;22.43;100.00
31538;BME280;18147;51.952;6.146;2023-09-18T09:38:01;100302.44;;;22.09;100.00
31538;BME280;18147;51.952;6.146;2023-09-18T09:40:28;100296.06;;;22.39;100.00
31538;BME280;18147;51.952;6.146;2023-09-18T09:42:59;100287.56;;;22.79;100.00
31538;BME280;18147;51.952;6.146;2023-09-18T09:45:28;100298.16;;;22.73;100.00
31538;BME280;18147;51.952;6.146;2023-09-18T09:48:00;100308.47;;;22.63;100.00
31538;BME280;18147;51.952;6.146;2023-09-18T09:50:33;100313.06;;;22.63;100.00
31538;BME280;18147;51.952;6.146;2023-09-18T09:52:59;100307.16;;;22.89;100.00
31538;BME280;18147;51.952;6.146;2023-09-18T09:55:30;100294.44;;;22.74;100.00
31538;BME280;18147;51.952;6.146;2023-09-18T09:57:59;100299.97;;;23.17;100.00
31538;BME280;18147;51.952;6.146;2023-09-18T10:00:37;100293.69;;;23.17;100.00
31538;BME280;18147;51.952;6.146;2023-09-18T10:03:10;100280.72;;;23.19;100.00
31538;BME280;18147;51.952;6.146;2023-09-18T10:05:42;100289.09;;;23.17;100.00
31538;BME280;18147;51.952;6.146;2023-09-18T10:08:21;100288.81;;;23.12;100.00
31538;BME280;18147;51.952;6.146;2023-09-18T10:10:48;100305.31;;;23.25;100.00
31538;BME280;18147;51.952;6.146;2023-09-18T10:13:27;100310.66;;;23.19;100.00
31538;BME280;18147;51.952;6.146;2023-09-18T10:15:56;100304.16;;;23.35;100.00
31538;BME280;18147;51.952;6.146;2023-09-18T10:24:33;100323.47;;;23.40;100.00
31538;BME280;18147;51.952;6.146;2023-09-18T10:27:01;100333.00;;;23.50;100.00
31538;BME280;18147;51.952;6.146;2023-09-18T10:29:34;100330.91;;;23.31;100.00
31538;BME280;18147;51.952;6.146;2023-09-18T10:32:03;100326.50;;;23.30;100.00
31538;BME280;18147;51.952;6.146;2023-09-18T10:34:36;100314.06;;;23.64;100.00
31538;BME280;18147;51.952;6.146;2023-09-18T10:37:08;100316.28;;;23.75;100.00
31538;BME280;18147;51.952;6.146;2023-09-18T10:39:38;100326.06;;;23.91;100.00
31538;BME280;18147;51.952;6.146;2023-09-18T10:42:07;100325.50;;;23.59;100.00
31538;BME280;18147;51.952;6.146;2023-09-18T10:44:34;100332.41;;;23.98;100.00
31538;BME280;18147;51.952;6.146;2023-09-18T10:47:02;100332.34;;;23.91;100.00
31538;BME280;18147;51.952;6.146;2023-09-18T10:49:28;100337.13;;;23.89;100.00
31538;BME280;18147;51.952;6.146;2023-09-18T10:51:58;100339.56;;;23.77;100.00
31538;BME280;18147;51.952;6.146;2023-09-18T10:54:30;100340.84;;;23.60;100.00
31538;BME280;18147;51.952;6.146;2023-09-18T10:56:57;100335.00;;;23.63;100.00
31538;BME280;18147;51.952;6.146;2023-09-18T10:59:27;100342.06;;;23.58;100.00
31538;BME280;18147;51.952;6.146;2023-09-18T11:01:53;100334.72;;;23.58;100.00
31538;BME280;18147;51.952;6.146;2023-09-18T11:04:22;100331.63;;;23.83;100.00
31538;BME280;18147;51.952;6.146;2023-09-18T11:09:28;100328.53;;;24.14;100.00
31538;BME280;18147;51.952;6.146;2023-09-18T11:14:48;100327.69;;;24.13;100.00
31538;BME280;18147;51.952;6.146;2023-09-18T11:17:35;100328.97;;;24.17;100.00
31538;BME280;18147;51.952;6.146;2023-09-18T11:20:23;100322.31;;;24.20;100.00
31538;BME280;18147;51.952;6.146;2023-09-18T11:22:57;100319.13;;;24.44;99.86
31538;BME280;18147;51.952;6.146;2023-09-18T11:25:42;100321.91;;;24.92;99.92
31538;BME280;18147;51.952;6.146;2023-09-18T11:28:15;100307.03;;;24.53;95.55
31538;BME280;18147;51.952;6.146;2023-09-18T11:30:53;100302.22;;;24.27;99.45
31538;BME280;18147;51.952;6.146;2023-09-18T11:33:45;100304.59;;;24.65;100.00
31538;BME280;18147;51.952;6.146;2023-09-18T11:36:12;100298.50;;;24.70;99.43
31538;BME280;18147;51.952;6.146;2023-09-18T11:39:00;100316.88;;;24.54;100.00
31538;BME280;18147;51.952;6.146;2023-09-18T11:41:33;100319.72;;;24.40;100.00
31538;BME280;18147;51.952;6.146;2023-09-18T11:46:46;100306.03;;;24.61;96.94
31538;BME280;18147;51.952;6.146;2023-09-18T11:49:14;100302.25;;;24.62;97.37
31538;BME280;18147;51.952;6.146;2023-09-18T11:51:44;100303.44;;;24.46;99.01
31538;BME280;18147;51.952;6.146;2023-09-18T11:54:11;100302.94;;;24.77;100.00
31538;BME280;18147;51.952;6.146;2023-09-18T11:56:46;100300.84;;;24.38;99.01
31538;BME280;18147;51.952;6.146;2023-09-18T11:59:12;100294.16;;;24.13;100.00
31538;BME280;18147;51.952;6.146;2023-09-18T12:01:38;100293.94;;;24.14;99.27
31538;BME280;18147;51.952;6.146;2023-09-18T12:04:14;100309.22;;;23.81;99.96
31538;BME280;18147;51.952;6.146;2023-09-18T12:06:41;100301.22;;;24.00;100.00
31538;BME280;18147;51.952;6.146;2023-09-18T12:09:08;100310.09;;;23.88;100.00
31538;BME280;18147;51.952;6.146;2023-09-18T12:11:42;100336.09;;;23.47;100.00
31538;BME280;18147;51.952;6.146;2023-09-18T12:14:08;100340.16;;;22.86;100.00
31538;BME280;18147;51.952;6.146;2023-09-18T12:16:40;100342.13;;;22.47;100.00
31538;BME280;18147;51.952;6.146;2023-09-18T12:19:16;100339.53;;;22.39;100.00
31538;BME280;18147;51.952;6.146;2023-09-18T12:21:46;100344.56;;;22.42;100.00
31538;BME280;18147;51.952;6.146;2023-09-18T12:24:39;100328.25;;;23.02;100.00
31538;BME280;18147;51.952;6.146;2023-09-18T12:27:11;100323.03;;;23.21;100.00
31538;BME280;18147;51.952;6.146;2023-09-18T12:29:36;100317.94;;;22.82;100.00
31538;BME280;18147;51.952;6.146;2023-09-18T12:32:11;100314.75;;;22.93;100.00
31538;BME280;18147;51.952;6.146;2023-09-18T12:34:42;100314.69;;;23.23;100.00
31538;BME280;18147;51.952;6.146;2023-09-18T12:37:09;100305.34;;;23.11;100.00
31538;BME280;18147;51.952;6.146;2023-09-18T12:39:40;100300.56;;;23.13;100.00
31538;BME280;18147;51.952;6.146;2023-09-18T12:42:08;100296.28;;;22.89;100.00
31538;BME280;18147;51.952;6.146;2023-09-18T12:44:34;100298.03;;;23.33;100.00
31538;BME280;18147;51.952;6.146;2023-09-18T12:47:00;100294.09;;;23.57;100.00
31538;BME280;18147;51.952;6.146;2023-09-18T12:49:30;100286.00;;;23.63;100.00
31538;BME280;18147;51.952;6.146;2023-09-18T12:51:58;100275.38;;;23.68;100.00
31538;BME280;18147;51.952;6.146;2023-09-18T12:54:44;100286.53;;;23.73;100.00
31538;BME280;18147;51.952;6.146;2023-09-18T12:57:15;100273.56;;;23.75;100.00
31538;BME280;18147;51.952;6.146;2023-09-18T12:59:41;100277.03;;;23.91;100.00
31538;BME280;18147;51.952;6.146;2023-09-18T13:02:08;100281.31;;;24.00;100.00
31538;BME280;18147;51.952;6.146;2023-09-18T13:04:41;100278.16;;;24.31;100.00